Flight Track Log - Related Links

Times and Time Zones

All times are in EDT time to prevent confusion due to time zone crossing. See the UCA4846 flight status page for this flight to view local times or setup timezone preferences in your user account.

Time Position Orientation Groundspeed Altitude Reporting Facility
EDT Latitude Longitude Course Direction KTS MPH feet Rate Location/Type
Sat 07:38:00 PM 39.8856 -75.7184 232° Southwest  Level FlightAware Approximate
Sat 07:39:00 PM 39.8487 -75.7770 229° Southwest  Level FlightAware Approximate
Sat 07:40:00 PM 39.8164 -75.8396 241° Southwest  Level FlightAware Approximate
Sat 07:41:00 PM 39.7880 -75.9058 241° Southwest  Level FlightAware Approximate
Sat 07:42:00 PM 39.7568 -75.9698 237° Southwest  Level FlightAware Approximate
Sat 07:43:00 PM 39.7242 -76.0183 237° Southwest  Level FlightAware Approximate
Sat 07:44:00 PM 39.6924 -76.0819 237° Southwest  Level FlightAware Approximate
Sat 07:45:00 PM 39.6645 -76.1450 229° Southwest  Level FlightAware Approximate
Sat 07:46:00 PM 39.6303 -76.2061 237° Southwest  Level FlightAware Approximate
Sat 07:47:00 PM 39.5959 -76.2750 237° Southwest  Level FlightAware Approximate
Sat 07:48:00 PM 39.5500 -76.3291 210° Southwest  Level FlightAware Approximate
Sat 07:49:00 PM 39.4953 -76.3702 210° Southwest  Level FlightAware Approximate
Sat 07:50:00 PM 39.4405 -76.4113 210° Southwest  Level FlightAware Approximate
Sat 07:51:00 PM 39.3899 -76.4601 218° Southwest  Level FlightAware Approximate
Sat 07:52:00 PM 39.3365 -76.5034 207° Southwest  Level FlightAware Approximate
Sat 07:53:00 PM 39.2843 -76.5490 218° Southwest  Level FlightAware Approximate
Sat 07:54:00 PM 39.2288 -76.5879 218° Southwest  Level FlightAware Approximate
Sat 07:55:00 PM 39.1788 -76.6379 218° Southwest  Level FlightAware Approximate
Sat 07:56:00 PM 39.1667 -76.6667 270° West  Level FlightAware Approximate
Sat 07:57:00 PM 39.1754 -76.6683 270° West  Level Estimated
Sat 07:58:00 PM 39.1754 -76.6683 270° West  Level Estimated
Sat 07:59:00 PM 39.1754 -76.6683 270° West  Level Estimated
Sat 08:00:00 PM 39.1754 -76.6683 270° West  Level Estimated
Sat 08:01:00 PM 39.1754 -76.6683 270° West  Level Estimated
Sat 08:02:00 PM 39.1754 -76.6683 270° West  Level Estimated
Sat 08:03:00 PM 39.1754 -76.6683 270° West  Level Estimated
Sat 08:04:00 PM 39.1754 -76.6683 270° West  Level Estimated
Sat 08:05:00 PM 39.1754 -76.6683 270° West  Level Estimated
Sat 08:06:00 PM 39.1754 -76.6683 270° West  Level Estimated
Sat 08:07:00 PM 39.1754 -76.6683 270° West  Level Estimated
Sat 08:08:00 PM 39.1754 -76.6683 270° West  Level Estimated
Sat 08:09:00 PM 39.1754 -76.6683 270° West  Level Estimated
Sat 08:10:00 PM 39.1754 -76.6683 270° West  Level Estimated
Sat 08:11:00 PM 39.1754 -76.6683 270° West  Level Estimated

Login

Don't have an account? Register now (free) for customized features, flight alerts, and more!